createdAt,value
2018-08-23T00:01:30.618Z,40.70
2018-08-23T00:06:34.792Z,39.80
2018-08-23T00:11:43.697Z,36.83
2018-08-23T00:16:48.464Z,34.83
2018-08-23T00:21:52.108Z,40.53
2018-08-23T00:27:00.763Z,35.23
2018-08-23T00:32:07.767Z,33.03
2018-08-23T00:37:13.030Z,33.17
2018-08-23T00:42:18.272Z,34.40
2018-08-23T00:47:23.621Z,36.50
2018-08-23T00:52:42.112Z,42.53
2018-08-23T00:57:46.814Z,38.50
2018-08-23T01:02:51.358Z,34.33
2018-08-23T01:07:55.333Z,34.50
2018-08-23T01:13:00.837Z,37.03
2018-08-23T01:18:15.755Z,40.33
2018-08-23T01:23:19.360Z,38.53
2018-08-23T01:28:22.870Z,38.67
2018-08-23T01:33:26.917Z,44.50
2018-08-23T01:38:30.444Z,41.97
2018-08-23T01:43:34.042Z,43.60
2018-08-23T01:48:37.651Z,45.47
2018-08-23T01:53:41.195Z,41.67
2018-08-23T01:58:45.862Z,52.73
2018-08-23T02:03:49.821Z,45.47
2018-08-23T02:08:53.800Z,54.50
2018-08-23T02:13:57.416Z,56.87
2018-08-23T02:19:01.075Z,59.87
2018-08-23T02:24:04.647Z,58.80
2018-08-23T02:29:08.182Z,61.80
2018-08-23T02:34:16.018Z,62.53
2018-08-23T02:39:19.782Z,60.97
2018-08-23T02:44:23.350Z,64.47
2018-08-23T02:49:26.870Z,65.67
2018-08-23T02:54:30.673Z,66.40
2018-08-23T02:59:34.496Z,66.60
2018-08-23T03:04:38.073Z,71.33
2018-08-23T03:09:44.083Z,66.07
2018-08-23T03:14:48.172Z,68.30
2018-08-23T03:20:12.565Z,66.47
2018-08-23T03:25:18.232Z,70.57
2018-08-23T03:30:35.280Z,71.17
2018-08-23T03:35:38.882Z,66.97
2018-08-23T03:40:42.433Z,70.77
2018-08-23T03:45:46.352Z,71.93
2018-08-23T03:50:51.813Z,79.67
2018-08-23T03:56:07.425Z,76.07
2018-08-23T04:01:14.270Z,74.17
2018-08-23T04:06:39.025Z,82.97
2018-08-23T04:11:43.398Z,75.07
2018-08-23T04:16:46.977Z,84.50
2018-08-23T04:21:50.848Z,76.03
2018-08-23T04:26:54.351Z,70.87
2018-08-23T04:31:57.944Z,71.37
2018-08-23T04:37:01.596Z,68.63
2018-08-23T04:42:05.667Z,74.13
2018-08-23T04:47:09.996Z,80.43
2018-08-23T04:52:14.126Z,78.23
2018-08-23T04:57:17.688Z,81.63
2018-08-23T05:02:21.341Z,69.00
2018-08-23T05:07:24.908Z,73.87
2018-08-23T05:12:28.595Z,83.13
2018-08-23T05:17:32.091Z,75.30
2018-08-23T05:22:35.652Z,85.13
2018-08-23T05:27:55.402Z,78.00
2018-08-23T05:33:06.003Z,79.40
2018-08-23T05:38:10.245Z,75.10
2018-08-23T05:43:14.533Z,71.40
2018-08-23T05:48:31.982Z,71.73
2018-08-23T05:53:41.306Z,95.97
2018-08-23T05:58:44.764Z,72.30
2018-08-23T06:03:48.406Z,88.43
2018-08-23T06:08:57.340Z,93.80
2018-08-23T06:14:00.930Z,88.80
2018-08-23T06:19:04.404Z,78.23
2018-08-23T06:24:09.347Z,71.47
2018-08-23T06:29:26.201Z,73.90
2018-08-23T06:34:31.393Z,67.50
2018-08-23T06:39:34.874Z,69.53
2018-08-23T06:44:51.549Z,73.67
2018-08-23T06:49:55.597Z,70.20
2018-08-23T06:54:59.249Z,59.03
2018-08-23T07:00:03.371Z,57.53
2018-08-23T07:05:06.965Z,65.47
2018-08-23T07:10:11.919Z,58.77
2018-08-23T07:15:15.521Z,61.63
2018-08-23T07:20:19.107Z,52.37
2018-08-23T07:25:23.033Z,56.13
2018-08-23T07:30:26.568Z,65.83
2018-08-23T07:35:30.119Z,60.20
2018-08-23T07:40:33.777Z,54.40
2018-08-23T07:45:37.534Z,53.20
2018-08-23T07:50:41.085Z,53.00
2018-08-23T07:55:44.630Z,49.60
2018-08-23T08:00:48.164Z,46.87
2018-08-23T08:05:51.920Z,49.07
2018-08-23T08:10:59.614Z,52.73
2018-08-23T08:16:13.985Z,49.37
2018-08-23T08:21:18.425Z,48.47
2018-08-23T08:26:22.165Z,45.80
2018-08-23T08:31:25.754Z,40.50
2018-08-23T08:36:31.269Z,47.50
2018-08-23T08:41:37.449Z,42.13
2018-08-23T08:46:41.681Z,40.37
2018-08-23T08:51:45.486Z,39.90
2018-08-23T08:56:49.206Z,41.20
2018-08-23T09:01:53.261Z,37.13
2018-08-23T09:06:56.866Z,38.70
2018-08-23T09:12:03.743Z,37.03
2018-08-23T09:17:23.983Z,39.80
2018-08-23T09:22:27.693Z,41.07
2018-08-23T09:27:31.212Z,36.03
2018-08-23T09:32:35.359Z,31.53
2018-08-23T09:37:39.755Z,36.07
2018-08-23T09:42:43.255Z,34.23
2018-08-23T09:47:46.945Z,32.93
2018-08-23T09:52:51.475Z,33.70
2018-08-23T09:57:55.073Z,30.43
2018-08-23T10:03:04.891Z,33.07
2018-08-23T10:08:14.292Z,32.10
2018-08-23T10:13:23.330Z,30.17
2018-08-23T10:18:32.633Z,26.87
2018-08-23T10:23:36.203Z,24.63
2018-08-23T10:28:45.233Z,21.40
2018-08-23T10:33:48.918Z,22.00
2018-08-23T10:38:52.844Z,24.70
2018-08-23T10:43:57.174Z,22.37
2018-08-23T10:49:01.105Z,21.43
2018-08-23T10:54:04.650Z,23.37
2018-08-23T10:59:08.596Z,23.97
2018-08-23T11:04:12.126Z,19.73
2018-08-23T11:10:20.885Z,19.57
2018-08-23T11:15:25.425Z,17.47
2018-08-23T11:20:31.539Z,15.97
2018-08-23T11:25:35.113Z,19.10
2018-08-23T11:30:38.797Z,20.57
2018-08-23T11:35:42.371Z,17.80
2018-08-23T11:40:46.037Z,17.80
2018-08-23T11:45:54.884Z,17.33
2018-08-23T11:50:59.036Z,16.17
2018-08-23T11:56:02.797Z,17.23
2018-08-23T12:01:11.672Z,12.63
2018-08-23T12:06:16.515Z,11.77
2018-08-23T12:11:20.082Z,16.87
2018-08-23T12:16:23.633Z,12.37
2018-08-23T12:21:27.232Z,11.70
2018-08-23T12:26:31.032Z,12.63
2018-08-23T12:31:34.569Z,12.00
2018-08-23T12:36:44.009Z,18.10
2018-08-23T12:41:53.064Z,9.17
2018-08-23T12:47:02.134Z,11.60
2018-08-23T12:52:05.888Z,9.00
2018-08-23T12:57:09.581Z,8.70
2018-08-23T13:02:13.295Z,10.50
2018-08-23T13:07:16.833Z,11.90
2018-08-23T13:12:20.534Z,11.53
2018-08-23T13:17:24.361Z,10.67
2018-08-23T13:22:33.470Z,11.43
2018-08-23T13:27:37.184Z,11.37
2018-08-23T13:32:57.346Z,11.80
2018-08-23T13:38:00.910Z,10.70
2018-08-23T13:43:04.509Z,10.33
2018-08-23T13:48:08.344Z,12.67
2018-08-23T13:53:12.080Z,9.13
2018-08-23T13:58:15.672Z,13.37
2018-08-23T14:03:19.293Z,12.63
2018-08-23T14:08:22.828Z,10.00
2018-08-23T14:13:26.495Z,10.57
2018-08-23T14:18:30.029Z,7.83
2018-08-23T14:23:33.619Z,9.90
2018-08-23T14:28:37.623Z,8.47
2018-08-23T14:33:41.091Z,8.10
2018-08-23T14:38:44.675Z,7.13
2018-08-23T14:43:48.245Z,7.20
2018-08-23T14:48:52.307Z,7.43
2018-08-23T14:53:56.056Z,7.17
2018-08-23T14:58:59.610Z,8.50
2018-08-23T15:04:03.789Z,8.23
2018-08-23T15:09:08.501Z,6.67
2018-08-23T15:14:12.156Z,6.93
2018-08-23T15:19:15.698Z,5.83
2018-08-23T15:24:19.347Z,10.03
2018-08-23T15:29:22.888Z,6.93
2018-08-23T15:34:26.572Z,6.77
2018-08-23T15:39:30.191Z,7.43
2018-08-23T15:44:33.688Z,7.60
2018-08-23T15:49:37.254Z,5.20
2018-08-23T15:54:40.835Z,5.33
2018-08-23T15:59:44.382Z,9.63
2018-08-23T16:04:48.018Z,5.57
2018-08-23T16:09:51.566Z,6.63
2018-08-23T16:14:55.037Z,6.63
2018-08-23T16:20:03.909Z,5.57
2018-08-23T16:25:07.517Z,6.30
2018-08-23T16:30:14.128Z,7.83
2018-08-23T16:35:17.674Z,8.43
2018-08-23T16:40:26.722Z,5.07
2018-08-23T16:45:30.623Z,6.37
2018-08-23T16:50:34.177Z,6.87
2018-08-23T16:55:37.852Z,6.57
2018-08-23T17:00:41.634Z,3.93
2018-08-23T17:05:45.156Z,7.90
2018-08-23T17:10:48.830Z,4.80
2018-08-23T17:15:57.674Z,8.70
2018-08-23T17:21:01.391Z,6.87
2018-08-23T17:26:04.877Z,6.47
2018-08-23T17:31:08.421Z,5.90
2018-08-23T17:36:11.939Z,6.67
2018-08-23T17:41:18.190Z,6.33
2018-08-23T17:46:21.887Z,6.23
2018-08-23T17:51:25.955Z,7.43
2018-08-23T17:56:29.825Z,5.43
2018-08-23T18:01:33.411Z,5.77
2018-08-23T18:06:37.539Z,5.90
2018-08-23T18:11:41.186Z,6.73
2018-08-23T18:16:50.099Z,6.80
2018-08-23T18:21:53.864Z,6.93
2018-08-23T18:26:58.010Z,6.73
2018-08-23T18:32:01.644Z,5.87
2018-08-23T18:37:05.403Z,6.35
2018-08-23T18:42:08.945Z,10.93
2018-08-23T18:47:12.789Z,10.87
2018-08-23T18:52:16.345Z,10.07
2018-08-23T18:57:19.847Z,17.43
2018-08-23T19:02:24.086Z,11.50
2018-08-23T19:07:33.136Z,11.07
2018-08-23T19:12:36.785Z,12.67
2018-08-23T19:17:42.152Z,11.40
2018-08-23T19:22:45.914Z,14.80
2018-08-23T19:27:49.889Z,15.00
2018-08-23T19:32:54.585Z,14.63
2018-08-23T19:37:58.638Z,14.37
2018-08-23T19:43:03.305Z,12.57
2018-08-23T19:48:06.860Z,13.37
2018-08-23T19:53:10.441Z,12.90
2018-08-23T19:58:14.000Z,11.90
2018-08-23T20:03:17.593Z,14.73
2018-08-23T20:08:21.601Z,12.17
2018-08-23T20:13:25.220Z,13.67
2018-08-23T20:18:29.182Z,12.30
2018-08-23T20:23:32.721Z,13.30
2018-08-23T20:28:36.318Z,12.33
2018-08-23T20:33:39.936Z,13.60
2018-08-23T20:38:43.437Z,13.07
2018-08-23T20:43:47.003Z,14.47
2018-08-23T20:48:51.543Z,12.20
2018-08-23T20:53:55.090Z,13.57
2018-08-23T20:58:58.861Z,12.20
2018-08-23T21:04:02.478Z,13.17
2018-08-23T21:09:09.212Z,12.37
2018-08-23T21:14:12.899Z,9.33
2018-08-23T21:19:16.515Z,11.40
2018-08-23T21:24:20.165Z,12.10
2018-08-23T21:29:23.716Z,12.23
2018-08-23T21:34:27.289Z,13.53
2018-08-23T21:39:30.802Z,12.83
2018-08-23T21:44:34.439Z,12.07
2018-08-23T21:49:39.380Z,12.20
2018-08-23T21:54:43.699Z,14.97
2018-08-23T21:59:47.574Z,11.90
2018-08-23T22:04:52.705Z,11.27
2018-08-23T22:09:56.259Z,12.77
2018-08-23T22:14:59.774Z,11.30
2018-08-23T22:20:04.046Z,10.57
2018-08-23T22:25:07.955Z,11.50
2018-08-23T22:30:23.459Z,12.13
2018-08-23T22:35:27.770Z,13.23
2018-08-23T22:40:31.380Z,14.40
2018-08-23T22:45:35.779Z,12.67
2018-08-23T22:50:39.371Z,12.43
2018-08-23T22:55:42.962Z,12.73
2018-08-23T23:00:46.647Z,11.87
2018-08-23T23:05:50.214Z,12.33
2018-08-23T23:10:54.507Z,11.83
2018-08-23T23:15:58.038Z,15.23
2018-08-23T23:21:02.193Z,13.90
2018-08-23T23:26:06.176Z,13.63
2018-08-23T23:31:09.775Z,11.73
2018-08-23T23:36:14.171Z,15.07
2018-08-23T23:41:17.713Z,11.80
2018-08-23T23:46:21.452Z,11.93
2018-08-23T23:51:24.984Z,9.57
2018-08-23T23:56:28.674Z,12.30
